createdAt,value
2022-09-27T22:45:44.855Z,3.10
2022-09-27T22:46:44.851Z,4.00
2022-09-27T22:47:44.798Z,5.60
2022-09-27T22:48:44.780Z,5.50
2022-09-27T22:49:44.775Z,6.80
2022-09-27T22:50:44.759Z,5.40
2022-09-27T22:51:44.785Z,7.40
2022-09-27T22:52:44.756Z,5.60
2022-09-27T22:53:44.752Z,6.30
2022-09-27T22:54:44.715Z,6.80
2022-09-27T22:55:44.710Z,5.60
2022-09-27T22:56:44.722Z,6.50
2022-09-27T22:57:44.700Z,6.50
2022-09-27T22:58:44.674Z,6.80
2022-09-27T22:59:44.669Z,6.60
2022-09-27T23:00:44.706Z,6.80
2022-09-27T23:01:44.693Z,7.20
2022-09-27T23:02:44.632Z,6.40
2022-09-27T23:03:44.690Z,8.00
2022-09-27T23:04:44.606Z,8.20
2022-09-27T23:05:44.600Z,7.00
2022-09-27T23:06:44.604Z,7.30
2022-09-27T23:07:44.579Z,6.90
2022-09-27T23:08:44.565Z,6.40
2022-09-27T23:09:44.557Z,7.40
2022-09-27T23:10:44.540Z,7.80
2022-09-27T23:11:44.557Z,6.90
2022-09-27T23:12:44.545Z,7.70
2022-09-27T23:13:44.521Z,7.50
2022-09-27T23:14:44.503Z,8.90
2022-09-27T23:15:44.572Z,8.10
2022-09-27T23:16:44.481Z,8.80
2022-09-27T23:17:44.495Z,7.80
2022-09-27T23:18:44.459Z,7.20
2022-09-27T23:19:44.442Z,7.70
2022-09-27T23:20:44.445Z,8.50
2022-09-27T23:21:44.423Z,7.20
2022-09-27T23:22:44.429Z,8.40
2022-09-27T23:23:44.403Z,7.70
2022-09-27T23:24:44.392Z,8.90
2022-09-27T23:25:44.370Z,9.50
2022-09-27T23:26:44.400Z,7.70
2022-09-27T23:27:44.350Z,8.00
2022-09-27T23:28:44.354Z,8.00
2022-09-27T23:29:44.326Z,8.30
2022-09-27T23:30:44.329Z,8.60
2022-09-27T23:31:44.420Z,8.50
2022-09-27T23:32:44.316Z,7.40
2022-09-27T23:33:44.370Z,8.10
2022-09-27T23:34:44.282Z,8.80
2022-09-27T23:35:44.289Z,8.80
2022-09-27T23:36:44.250Z,7.80
2022-09-27T23:37:44.247Z,10.30
2022-09-27T23:38:44.244Z,8.00
2022-09-27T23:39:44.212Z,8.60
2022-09-27T23:40:44.302Z,7.00
2022-09-27T23:41:44.203Z,8.70
2022-09-27T23:42:44.197Z,8.30
2022-09-27T23:43:44.169Z,8.90
2022-09-27T23:44:44.168Z,8.30
2022-09-27T23:45:44.158Z,9.70
2022-09-27T23:46:44.223Z,10.20
2022-09-27T23:47:44.122Z,9.80
2022-09-27T23:48:44.126Z,10.60
2022-09-27T23:49:44.122Z,11.20
2022-09-27T23:50:44.095Z,10.30
2022-09-27T23:51:44.092Z,9.40
2022-09-27T23:52:44.079Z,8.60
2022-09-27T23:53:44.084Z,12.10
2022-09-27T23:54:44.050Z,9.20
2022-09-27T23:55:44.045Z,11.90
2022-09-27T23:56:44.040Z,10.00
2022-09-27T23:57:44.027Z,11.60
2022-09-27T23:58:44.014Z,12.00
2022-09-27T23:59:43.987Z,11.40
